sensor_id;sensor_type;location;lat;lon;timestamp;P1;durP1;ratioP1;P2;durP2;ratioP2
20122;SDS011;10222;50.848;4.336;2023-02-28T00:04:09;4.30;;;2.60;;
20122;SDS011;10222;50.848;4.336;2023-02-28T00:06:38;4.17;;;2.47;;
20122;SDS011;10222;50.848;4.336;2023-02-28T00:09:07;5.30;;;2.60;;
20122;SDS011;10222;50.848;4.336;2023-02-28T00:11:34;7.70;;;2.80;;
20122;SDS011;10222;50.848;4.336;2023-02-28T00:14:02;6.23;;;3.43;;
20122;SDS011;10222;50.848;4.336;2023-02-28T00:16:30;7.43;;;3.27;;
20122;SDS011;10222;50.848;4.336;2023-02-28T00:19:00;5.37;;;2.73;;
20122;SDS011;10222;50.848;4.336;2023-02-28T00:21:28;4.90;;;2.70;;
20122;SDS011;10222;50.848;4.336;2023-02-28T00:23:56;4.07;;;2.40;;
20122;SDS011;10222;50.848;4.336;2023-02-28T00:26:22;3.00;;;2.40;;
20122;SDS011;10222;50.848;4.336;2023-02-28T00:28:48;3.77;;;3.00;;
20122;SDS011;10222;50.848;4.336;2023-02-28T00:31:17;3.57;;;2.23;;
20122;SDS011;10222;50.848;4.336;2023-02-28T00:33:43;4.57;;;2.60;;
20122;SDS011;10222;50.848;4.336;2023-02-28T00:36:10;5.70;;;2.20;;
20122;SDS011;10222;50.848;4.336;2023-02-28T00:38:38;5.63;;;2.53;;
20122;SDS011;10222;50.848;4.336;2023-02-28T00:41:08;7.27;;;2.80;;
20122;SDS011;10222;50.848;4.336;2023-02-28T00:46:07;5.57;;;2.80;;
20122;SDS011;10222;50.848;4.336;2023-02-28T00:48:35;4.40;;;2.63;;
20122;SDS011;10222;50.848;4.336;2023-02-28T00:51:03;8.27;;;3.00;;
20122;SDS011;10222;50.848;4.336;2023-02-28T00:53:30;4.73;;;2.77;;
20122;SDS011;10222;50.848;4.336;2023-02-28T00:55:57;7.23;;;3.27;;
20122;SDS011;10222;50.848;4.336;2023-02-28T00:58:24;3.37;;;2.63;;
20122;SDS011;10222;50.848;4.336;2023-02-28T01:00:59;5.17;;;2.70;;
20122;SDS011;10222;50.848;4.336;2023-02-28T01:03:31;4.00;;;2.57;;
20122;SDS011;10222;50.848;4.336;2023-02-28T01:05:57;4.57;;;2.83;;
20122;SDS011;10222;50.848;4.336;2023-02-28T01:08:31;3.33;;;2.80;;
20122;SDS011;10222;50.848;4.336;2023-02-28T01:13:27;6.03;;;2.73;;
20122;SDS011;10222;50.848;4.336;2023-02-28T01:18:24;6.67;;;2.73;;
20122;SDS011;10222;50.848;4.336;2023-02-28T01:20:50;4.50;;;3.00;;
20122;SDS011;10222;50.848;4.336;2023-02-28T01:23:21;5.33;;;2.97;;
20122;SDS011;10222;50.848;4.336;2023-02-28T01:25:49;4.17;;;2.80;;
20122;SDS011;10222;50.848;4.336;2023-02-28T01:28:19;4.07;;;2.73;;
20122;SDS011;10222;50.848;4.336;2023-02-28T01:33:20;4.23;;;3.20;;
20122;SDS011;10222;50.848;4.336;2023-02-28T01:35:49;6.33;;;2.90;;
20122;SDS011;10222;50.848;4.336;2023-02-28T01:40:45;4.90;;;3.03;;
20122;SDS011;10222;50.848;4.336;2023-02-28T01:43:29;3.87;;;3.10;;
20122;SDS011;10222;50.848;4.336;2023-02-28T01:45:56;3.47;;;3.07;;
20122;SDS011;10222;50.848;4.336;2023-02-28T01:48:25;7.07;;;2.93;;
20122;SDS011;10222;50.848;4.336;2023-02-28T01:50:54;3.30;;;2.33;;
20122;SDS011;10222;50.848;4.336;2023-02-28T01:53:24;4.20;;;3.07;;
20122;SDS011;10222;50.848;4.336;2023-02-28T01:55:55;4.07;;;2.90;;
20122;SDS011;10222;50.848;4.336;2023-02-28T01:58:23;4.40;;;2.57;;
20122;SDS011;10222;50.848;4.336;2023-02-28T02:00:49;4.13;;;3.07;;
20122;SDS011;10222;50.848;4.336;2023-02-28T02:05:45;3.63;;;2.70;;
20122;SDS011;10222;50.848;4.336;2023-02-28T02:10:50;11.57;;;3.90;;
20122;SDS011;10222;50.848;4.336;2023-02-28T02:16:06;5.50;;;2.73;;
20122;SDS011;10222;50.848;4.336;2023-02-28T02:18:50;6.00;;;2.50;;
20122;SDS011;10222;50.848;4.336;2023-02-28T02:32:28;8.37;;;3.20;;
20122;SDS011;10222;50.848;4.336;2023-02-28T02:37:15;4.10;;;2.57;;
20122;SDS011;10222;50.848;4.336;2023-02-28T02:42:16;4.43;;;3.47;;
20122;SDS011;10222;50.848;4.336;2023-02-28T02:44:52;3.70;;;2.70;;
20122;SDS011;10222;50.848;4.336;2023-02-28T02:47:26;8.43;;;4.50;;
20122;SDS011;10222;50.848;4.336;2023-02-28T02:50:05;5.80;;;3.57;;
20122;SDS011;10222;50.848;4.336;2023-02-28T02:52:37;3.87;;;3.00;;
20122;SDS011;10222;50.848;4.336;2023-02-28T02:55:05;9.07;;;3.50;;
20122;SDS011;10222;50.848;4.336;2023-02-28T02:57:40;6.43;;;3.57;;
20122;SDS011;10222;50.848;4.336;2023-02-28T03:00:11;3.20;;;2.77;;
20122;SDS011;10222;50.848;4.336;2023-02-28T03:07:48;8.33;;;4.13;;
20122;SDS011;10222;50.848;4.336;2023-02-28T03:10:34;8.10;;;3.43;;
20122;SDS011;10222;50.848;4.336;2023-02-28T03:26:21;5.07;;;3.67;;
20122;SDS011;10222;50.848;4.336;2023-02-28T03:31:24;5.33;;;3.40;;
20122;SDS011;10222;50.848;4.336;2023-02-28T03:34:04;5.63;;;3.70;;
20122;SDS011;10222;50.848;4.336;2023-02-28T03:36:34;10.10;;;4.00;;
20122;SDS011;10222;50.848;4.336;2023-02-28T03:41:37;5.43;;;3.50;;
20122;SDS011;10222;50.848;4.336;2023-02-28T03:44:16;5.00;;;3.13;;
20122;SDS011;10222;50.848;4.336;2023-02-28T03:47:00;8.00;;;4.13;;
20122;SDS011;10222;50.848;4.336;2023-02-28T03:49:31;5.83;;;3.23;;
20122;SDS011;10222;50.848;4.336;2023-02-28T03:51:59;5.20;;;3.63;;
20122;SDS011;10222;50.848;4.336;2023-02-28T03:54:31;9.37;;;4.27;;
20122;SDS011;10222;50.848;4.336;2023-02-28T03:57:03;7.10;;;4.07;;
20122;SDS011;10222;50.848;4.336;2023-02-28T03:59:38;7.03;;;4.00;;
20122;SDS011;10222;50.848;4.336;2023-02-28T04:02:06;5.67;;;3.20;;
20122;SDS011;10222;50.848;4.336;2023-02-28T04:07:08;3.83;;;3.17;;
20122;SDS011;10222;50.848;4.336;2023-02-28T04:12:05;5.73;;;3.87;;
20122;SDS011;10222;50.848;4.336;2023-02-28T04:19:31;7.40;;;3.83;;
20122;SDS011;10222;50.848;4.336;2023-02-28T04:21:58;4.37;;;3.70;;
20122;SDS011;10222;50.848;4.336;2023-02-28T04:24:26;4.87;;;3.40;;
20122;SDS011;10222;50.848;4.336;2023-02-28T04:29:27;6.27;;;3.67;;
20122;SDS011;10222;50.848;4.336;2023-02-28T04:34:25;9.07;;;4.30;;
20122;SDS011;10222;50.848;4.336;2023-02-28T04:36:53;8.00;;;4.17;;
20122;SDS011;10222;50.848;4.336;2023-02-28T04:39:22;5.20;;;3.70;;
20122;SDS011;10222;50.848;4.336;2023-02-28T04:41:49;6.10;;;3.53;;
20122;SDS011;10222;50.848;4.336;2023-02-28T04:44:17;6.67;;;4.00;;
20122;SDS011;10222;50.848;4.336;2023-02-28T04:46:47;11.93;;;3.77;;
20122;SDS011;10222;50.848;4.336;2023-02-28T04:51:44;6.23;;;4.50;;
20122;SDS011;10222;50.848;4.336;2023-02-28T04:54:11;7.03;;;3.83;;
20122;SDS011;10222;50.848;4.336;2023-02-28T04:56:41;5.33;;;3.93;;
20122;SDS011;10222;50.848;4.336;2023-02-28T04:59:10;5.70;;;3.87;;
20122;SDS011;10222;50.848;4.336;2023-02-28T05:01:36;7.47;;;3.90;;
20122;SDS011;10222;50.848;4.336;2023-02-28T05:06:32;7.17;;;4.00;;
20122;SDS011;10222;50.848;4.336;2023-02-28T05:11:32;7.23;;;4.17;;
20122;SDS011;10222;50.848;4.336;2023-02-28T05:16:48;7.67;;;4.50;;
20122;SDS011;10222;50.848;4.336;2023-02-28T05:24:27;6.23;;;4.23;;
20122;SDS011;10222;50.848;4.336;2023-02-28T05:29:26;7.13;;;3.90;;
20122;SDS011;10222;50.848;4.336;2023-02-28T05:34:21;7.83;;;4.33;;
20122;SDS011;10222;50.848;4.336;2023-02-28T05:39:19;8.40;;;3.73;;
20122;SDS011;10222;50.848;4.336;2023-02-28T05:44:16;6.90;;;3.87;;
20122;SDS011;10222;50.848;4.336;2023-02-28T05:49:14;4.57;;;3.23;;
20122;SDS011;10222;50.848;4.336;2023-02-28T05:51:46;8.07;;;3.77;;
20122;SDS011;10222;50.848;4.336;2023-02-28T05:54:13;10.37;;;4.20;;
20122;SDS011;10222;50.848;4.336;2023-02-28T05:56:41;6.73;;;4.43;;
20122;SDS011;10222;50.848;4.336;2023-02-28T05:59:10;6.87;;;3.47;;
20122;SDS011;10222;50.848;4.336;2023-02-28T06:01:37;9.50;;;4.57;;
20122;SDS011;10222;50.848;4.336;2023-02-28T06:04:04;5.20;;;3.60;;
20122;SDS011;10222;50.848;4.336;2023-02-28T06:09:01;9.33;;;4.13;;
20122;SDS011;10222;50.848;4.336;2023-02-28T06:11:29;7.67;;;3.83;;
20122;SDS011;10222;50.848;4.336;2023-02-28T06:13:55;6.17;;;4.33;;
20122;SDS011;10222;50.848;4.336;2023-02-28T06:16:31;9.47;;;4.43;;
20122;SDS011;10222;50.848;4.336;2023-02-28T06:19:02;5.90;;;4.13;;
20122;SDS011;10222;50.848;4.336;2023-02-28T06:24:04;9.07;;;4.40;;
20122;SDS011;10222;50.848;4.336;2023-02-28T06:26:30;4.93;;;3.60;;
20122;SDS011;10222;50.848;4.336;2023-02-28T06:28:57;9.50;;;4.33;;
20122;SDS011;10222;50.848;4.336;2023-02-28T06:31:23;10.27;;;4.87;;
20122;SDS011;10222;50.848;4.336;2023-02-28T06:33:50;6.30;;;4.03;;
20122;SDS011;10222;50.848;4.336;2023-02-28T06:36:17;10.60;;;4.43;;
20122;SDS011;10222;50.848;4.336;2023-02-28T06:38:45;5.40;;;4.20;;
20122;SDS011;10222;50.848;4.336;2023-02-28T06:41:16;5.83;;;3.57;;
20122;SDS011;10222;50.848;4.336;2023-02-28T06:43:42;10.20;;;3.83;;
20122;SDS011;10222;50.848;4.336;2023-02-28T06:46:10;8.33;;;3.83;;
20122;SDS011;10222;50.848;4.336;2023-02-28T06:48:40;10.00;;;4.17;;
20122;SDS011;10222;50.848;4.336;2023-02-28T06:51:10;13.57;;;4.57;;
20122;SDS011;10222;50.848;4.336;2023-02-28T06:53:40;7.00;;;4.13;;
20122;SDS011;10222;50.848;4.336;2023-02-28T06:56:11;8.93;;;3.77;;
20122;SDS011;10222;50.848;4.336;2023-02-28T06:58:37;8.50;;;4.07;;
20122;SDS011;10222;50.848;4.336;2023-02-28T07:01:04;5.83;;;3.67;;
20122;SDS011;10222;50.848;4.336;2023-02-28T07:03:34;8.73;;;3.80;;
20122;SDS011;10222;50.848;4.336;2023-02-28T07:06:04;6.70;;;4.00;;
20122;SDS011;10222;50.848;4.336;2023-02-28T07:11:03;7.70;;;3.67;;
20122;SDS011;10222;50.848;4.336;2023-02-28T07:13:33;8.27;;;4.83;;
20122;SDS011;10222;50.848;4.336;2023-02-28T07:16:01;6.20;;;3.80;;
20122;SDS011;10222;50.848;4.336;2023-02-28T07:18:27;8.10;;;4.37;;
20122;SDS011;10222;50.848;4.336;2023-02-28T07:21:10;9.90;;;3.77;;
20122;SDS011;10222;50.848;4.336;2023-02-28T07:23:42;8.37;;;4.57;;
20122;SDS011;10222;50.848;4.336;2023-02-28T07:26:13;7.60;;;4.23;;
20122;SDS011;10222;50.848;4.336;2023-02-28T07:28:44;7.93;;;4.30;;
20122;SDS011;10222;50.848;4.336;2023-02-28T07:31:12;10.67;;;4.70;;
20122;SDS011;10222;50.848;4.336;2023-02-28T07:33:45;14.73;;;5.00;;
20122;SDS011;10222;50.848;4.336;2023-02-28T07:36:14;6.33;;;3.30;;
20122;SDS011;10222;50.848;4.336;2023-02-28T07:41:22;6.90;;;3.93;;
20122;SDS011;10222;50.848;4.336;2023-02-28T07:46:22;6.93;;;4.33;;
20122;SDS011;10222;50.848;4.336;2023-02-28T07:51:19;7.40;;;4.00;;
20122;SDS011;10222;50.848;4.336;2023-02-28T07:53:45;5.37;;;4.10;;
20122;SDS011;10222;50.848;4.336;2023-02-28T07:56:14;5.37;;;2.83;;
20122;SDS011;10222;50.848;4.336;2023-02-28T07:58:44;6.50;;;3.70;;
20122;SDS011;10222;50.848;4.336;2023-02-28T08:01:11;8.43;;;3.43;;
20122;SDS011;10222;50.848;4.336;2023-02-28T08:03:40;6.93;;;3.40;;
20122;SDS011;10222;50.848;4.336;2023-02-28T08:06:07;7.67;;;3.10;;
20122;SDS011;10222;50.848;4.336;2023-02-28T08:11:06;6.97;;;3.13;;
20122;SDS011;10222;50.848;4.336;2023-02-28T08:13:34;4.23;;;3.10;;
20122;SDS011;10222;50.848;4.336;2023-02-28T08:16:02;5.03;;;2.73;;
20122;SDS011;10222;50.848;4.336;2023-02-28T08:18:30;5.57;;;2.90;;
20122;SDS011;10222;50.848;4.336;2023-02-28T08:21:08;3.53;;;2.50;;
20122;SDS011;10222;50.848;4.336;2023-02-28T08:23:34;6.17;;;2.50;;
20122;SDS011;10222;50.848;4.336;2023-02-28T08:26:03;6.13;;;2.97;;
20122;SDS011;10222;50.848;4.336;2023-02-28T08:28:32;5.63;;;2.83;;
20122;SDS011;10222;50.848;4.336;2023-02-28T08:31:01;4.70;;;2.57;;
20122;SDS011;10222;50.848;4.336;2023-02-28T08:33:28;3.87;;;2.43;;
20122;SDS011;10222;50.848;4.336;2023-02-28T08:38:29;4.30;;;2.63;;
20122;SDS011;10222;50.848;4.336;2023-02-28T08:43:27;3.63;;;2.30;;
20122;SDS011;10222;50.848;4.336;2023-02-28T08:45:58;4.13;;;1.80;;
20122;SDS011;10222;50.848;4.336;2023-02-28T08:48:25;5.47;;;2.00;;
20122;SDS011;10222;50.848;4.336;2023-02-28T08:51:03;2.80;;;2.07;;
20122;SDS011;10222;50.848;4.336;2023-02-28T08:53:32;3.20;;;2.13;;
20122;SDS011;10222;50.848;4.336;2023-02-28T08:58:28;5.83;;;1.93;;
20122;SDS011;10222;50.848;4.336;2023-02-28T09:00:57;2.73;;;1.80;;
20122;SDS011;10222;50.848;4.336;2023-02-28T09:03:26;2.33;;;1.90;;
20122;SDS011;10222;50.848;4.336;2023-02-28T09:05:58;2.67;;;2.20;;
20122;SDS011;10222;50.848;4.336;2023-02-28T09:08:28;3.77;;;1.80;;
20122;SDS011;10222;50.848;4.336;2023-02-28T09:13:26;3.33;;;1.97;;
20122;SDS011;10222;50.848;4.336;2023-02-28T09:15:53;3.37;;;2.03;;
20122;SDS011;10222;50.848;4.336;2023-02-28T09:18:23;2.70;;;1.90;;
20122;SDS011;10222;50.848;4.336;2023-02-28T09:20:52;4.87;;;2.80;;
20122;SDS011;10222;50.848;4.336;2023-02-28T09:23:21;4.70;;;2.50;;
20122;SDS011;10222;50.848;4.336;2023-02-28T09:25:51;3.17;;;2.23;;
20122;SDS011;10222;50.848;4.336;2023-02-28T09:33:27;6.37;;;2.00;;
20122;SDS011;10222;50.848;4.336;2023-02-28T09:35:58;2.63;;;1.70;;
20122;SDS011;10222;50.848;4.336;2023-02-28T09:38:25;4.33;;;1.80;;
20122;SDS011;10222;50.848;4.336;2023-02-28T09:40:53;1.93;;;1.70;;
20122;SDS011;10222;50.848;4.336;2023-02-28T09:43:25;3.20;;;2.07;;
20122;SDS011;10222;50.848;4.336;2023-02-28T09:48:38;1.87;;;1.70;;
20122;SDS011;10222;50.848;4.336;2023-02-28T09:53:48;1.80;;;1.40;;
20122;SDS011;10222;50.848;4.336;2023-02-28T09:56:27;2.73;;;2.10;;
20122;SDS011;10222;50.848;4.336;2023-02-28T10:04:27;3.13;;;1.43;;
20122;SDS011;10222;50.848;4.336;2023-02-28T10:07:04;2.33;;;1.63;;
20122;SDS011;10222;50.848;4.336;2023-02-28T10:09:35;1.80;;;1.27;;
20122;SDS011;10222;50.848;4.336;2023-02-28T10:12:04;3.70;;;2.00;;
20122;SDS011;10222;50.848;4.336;2023-02-28T10:14:36;1.90;;;1.30;;
20122;SDS011;10222;50.848;4.336;2023-02-28T10:22:15;1.87;;;1.57;;
20122;SDS011;10222;50.848;4.336;2023-02-28T10:24:44;1.93;;;1.57;;
20122;SDS011;10222;50.848;4.336;2023-02-28T10:27:13;3.10;;;1.57;;
20122;SDS011;10222;50.848;4.336;2023-02-28T10:29:45;3.90;;;1.87;;
20122;SDS011;10222;50.848;4.336;2023-02-28T10:32:14;3.97;;;2.00;;
20122;SDS011;10222;50.848;4.336;2023-02-28T10:37:10;1.30;;;1.20;;
20122;SDS011;10222;50.848;4.336;2023-02-28T10:39:38;2.00;;;1.33;;
20122;SDS011;10222;50.848;4.336;2023-02-28T10:42:18;3.53;;;2.23;;
20122;SDS011;10222;50.848;4.336;2023-02-28T10:44:46;2.07;;;1.30;;
20122;SDS011;10222;50.848;4.336;2023-02-28T10:49:50;1.63;;;1.00;;
20122;SDS011;10222;50.848;4.336;2023-02-28T10:52:37;1.30;;;1.13;;
20122;SDS011;10222;50.848;4.336;2023-02-28T10:58:20;2.00;;;1.40;;
20122;SDS011;10222;50.848;4.336;2023-02-28T11:05:54;1.10;;;1.00;;
20122;SDS011;10222;50.848;4.336;2023-02-28T11:08:20;5.23;;;1.20;;
20122;SDS011;10222;50.848;4.336;2023-02-28T11:10:54;2.27;;;1.10;;
20122;SDS011;10222;50.848;4.336;2023-02-28T11:13:24;1.77;;;1.23;;
20122;SDS011;10222;50.848;4.336;2023-02-28T11:20:56;1.97;;;1.30;;
20122;SDS011;10222;50.848;4.336;2023-02-28T11:23:25;2.43;;;1.10;;
20122;SDS011;10222;50.848;4.336;2023-02-28T11:25:56;5.00;;;1.47;;
20122;SDS011;10222;50.848;4.336;2023-02-28T11:28:31;1.43;;;1.30;;
20122;SDS011;10222;50.848;4.336;2023-02-28T11:36:23;4.97;;;1.57;;
20122;SDS011;10222;50.848;4.336;2023-02-28T11:38:56;2.60;;;1.30;;
20122;SDS011;10222;50.848;4.336;2023-02-28T11:46:47;2.53;;;1.40;;
20122;SDS011;10222;50.848;4.336;2023-02-28T11:59:54;1.73;;;1.53;;
20122;SDS011;10222;50.848;4.336;2023-02-28T12:07:44;1.90;;;1.60;;
20122;SDS011;10222;50.848;4.336;2023-02-28T12:10:28;1.40;;;1.30;;
20122;SDS011;10222;50.848;4.336;2023-02-28T12:28:43;2.50;;;1.20;;
20122;SDS011;10222;50.848;4.336;2023-02-28T12:31:17;1.40;;;1.30;;
20122;SDS011;10222;50.848;4.336;2023-02-28T12:33:46;4.57;;;1.70;;
20122;SDS011;10222;50.848;4.336;2023-02-28T12:36:17;2.37;;;1.60;;
20122;SDS011;10222;50.848;4.336;2023-02-28T12:38:58;2.97;;;1.20;;
20122;SDS011;10222;50.848;4.336;2023-02-28T12:41:41;1.47;;;1.10;;
20122;SDS011;10222;50.848;4.336;2023-02-28T12:44:30;2.90;;;1.40;;
20122;SDS011;10222;50.848;4.336;2023-02-28T12:46:57;2.90;;;1.50;;
20122;SDS011;10222;50.848;4.336;2023-02-28T12:49:30;1.40;;;1.20;;
20122;SDS011;10222;50.848;4.336;2023-02-28T12:51:59;2.40;;;1.20;;
20122;SDS011;10222;50.848;4.336;2023-02-28T13:00:12;1.57;;;1.37;;
20122;SDS011;10222;50.848;4.336;2023-02-28T13:03:04;2.20;;;1.40;;
20122;SDS011;10222;50.848;4.336;2023-02-28T13:08:28;1.77;;;1.30;;
20122;SDS011;10222;50.848;4.336;2023-02-28T13:11:01;1.93;;;1.30;;
20122;SDS011;10222;50.848;4.336;2023-02-28T13:13:30;2.67;;;1.40;;
20122;SDS011;10222;50.848;4.336;2023-02-28T13:16:04;1.80;;;1.10;;
20122;SDS011;10222;50.848;4.336;2023-02-28T13:27:10;1.47;;;1.13;;
20122;SDS011;10222;50.848;4.336;2023-02-28T13:34:46;3.83;;;1.60;;
20122;SDS011;10222;50.848;4.336;2023-02-28T13:37:36;2.40;;;1.67;;
20122;SDS011;10222;50.848;4.336;2023-02-28T13:42:49;2.10;;;1.30;;
20122;SDS011;10222;50.848;4.336;2023-02-28T13:45:30;1.63;;;1.10;;
20122;SDS011;10222;50.848;4.336;2023-02-28T13:48:15;1.47;;;1.13;;
20122;SDS011;10222;50.848;4.336;2023-02-28T13:50:42;1.33;;;1.27;;
20122;SDS011;10222;50.848;4.336;2023-02-28T13:53:28;1.93;;;1.40;;
20122;SDS011;10222;50.848;4.336;2023-02-28T14:06:46;3.60;;;1.37;;
20122;SDS011;10222;50.848;4.336;2023-02-28T14:09:27;6.73;;;1.30;;
20122;SDS011;10222;50.848;4.336;2023-02-28T14:17:15;1.17;;;1.00;;
20122;SDS011;10222;50.848;4.336;2023-02-28T14:38:52;2.93;;;1.87;;
20122;SDS011;10222;50.848;4.336;2023-02-28T14:43:52;2.00;;;1.50;;
20122;SDS011;10222;50.848;4.336;2023-02-28T14:51:22;6.50;;;1.70;;
20122;SDS011;10222;50.848;4.336;2023-02-28T14:56:30;1.70;;;1.40;;
20122;SDS011;10222;50.848;4.336;2023-02-28T14:58:58;1.77;;;1.67;;
20122;SDS011;10222;50.848;4.336;2023-02-28T15:01:25;2.53;;;1.43;;
20122;SDS011;10222;50.848;4.336;2023-02-28T15:04:05;1.50;;;1.40;;
20122;SDS011;10222;50.848;4.336;2023-02-28T15:06:35;1.57;;;1.40;;
20122;SDS011;10222;50.848;4.336;2023-02-28T15:14:22;3.10;;;1.50;;
20122;SDS011;10222;50.848;4.336;2023-02-28T15:16:50;2.10;;;1.43;;
20122;SDS011;10222;50.848;4.336;2023-02-28T15:22:25;3.03;;;1.50;;
20122;SDS011;10222;50.848;4.336;2023-02-28T15:24:54;1.53;;;1.40;;
20122;SDS011;10222;50.848;4.336;2023-02-28T15:27:21;2.17;;;1.53;;
20122;SDS011;10222;50.848;4.336;2023-02-28T15:29:50;5.83;;;1.70;;
20122;SDS011;10222;50.848;4.336;2023-02-28T15:32:28;3.47;;;2.03;;
20122;SDS011;10222;50.848;4.336;2023-02-28T15:34:58;4.93;;;2.27;;
20122;SDS011;10222;50.848;4.336;2023-02-28T15:43:11;3.67;;;2.00;;
20122;SDS011;10222;50.848;4.336;2023-02-28T15:45:46;2.77;;;1.87;;
20122;SDS011;10222;50.848;4.336;2023-02-28T15:48:16;1.50;;;1.40;;
20122;SDS011;10222;50.848;4.336;2023-02-28T15:50:44;2.37;;;1.63;;
20122;SDS011;10222;50.848;4.336;2023-02-28T15:53:17;5.70;;;1.70;;
20122;SDS011;10222;50.848;4.336;2023-02-28T15:55:45;1.67;;;1.37;;
20122;SDS011;10222;50.848;4.336;2023-02-28T15:58:17;5.37;;;1.80;;
20122;SDS011;10222;50.848;4.336;2023-02-28T16:00:44;1.87;;;1.67;;
20122;SDS011;10222;50.848;4.336;2023-02-28T16:06:09;2.80;;;1.60;;
20122;SDS011;10222;50.848;4.336;2023-02-28T16:08:41;3.57;;;1.93;;
20122;SDS011;10222;50.848;4.336;2023-02-28T16:11:10;2.83;;;1.57;;
20122;SDS011;10222;50.848;4.336;2023-02-28T16:13:38;1.47;;;1.17;;
20122;SDS011;10222;50.848;4.336;2023-02-28T16:16:06;3.37;;;1.93;;
20122;SDS011;10222;50.848;4.336;2023-02-28T16:18:35;2.40;;;1.53;;
20122;SDS011;10222;50.848;4.336;2023-02-28T16:21:04;1.67;;;1.40;;
20122;SDS011;10222;50.848;4.336;2023-02-28T16:23:31;3.00;;;1.70;;
20122;SDS011;10222;50.848;4.336;2023-02-28T16:25:59;5.77;;;1.80;;
20122;SDS011;10222;50.848;4.336;2023-02-28T16:28:29;2.20;;;1.67;;
20122;SDS011;10222;50.848;4.336;2023-02-28T16:30:59;3.50;;;1.97;;
20122;SDS011;10222;50.848;4.336;2023-02-28T16:33:30;3.30;;;1.60;;
20122;SDS011;10222;50.848;4.336;2023-02-28T16:35:57;2.73;;;1.70;;
20122;SDS011;10222;50.848;4.336;2023-02-28T16:38:26;2.47;;;1.50;;
20122;SDS011;10222;50.848;4.336;2023-02-28T16:40:53;3.23;;;2.07;;
20122;SDS011;10222;50.848;4.336;2023-02-28T16:43:22;4.57;;;2.13;;
20122;SDS011;10222;50.848;4.336;2023-02-28T16:48:21;2.40;;;2.00;;
20122;SDS011;10222;50.848;4.336;2023-02-28T16:50:48;1.37;;;1.23;;
20122;SDS011;10222;50.848;4.336;2023-02-28T16:53:16;2.47;;;1.50;;
20122;SDS011;10222;50.848;4.336;2023-02-28T16:55:43;2.50;;;1.53;;
20122;SDS011;10222;50.848;4.336;2023-02-28T16:58:15;4.07;;;1.90;;
20122;SDS011;10222;50.848;4.336;2023-02-28T17:00:42;6.60;;;1.30;;
20122;SDS011;10222;50.848;4.336;2023-02-28T17:03:20;1.83;;;1.50;;
20122;SDS011;10222;50.848;4.336;2023-02-28T17:05:51;2.13;;;1.20;;
20122;SDS011;10222;50.848;4.336;2023-02-28T17:08:20;3.50;;;1.40;;
20122;SDS011;10222;50.848;4.336;2023-02-28T17:13:15;2.47;;;1.30;;
20122;SDS011;10222;50.848;4.336;2023-02-28T17:15:42;3.23;;;1.50;;
20122;SDS011;10222;50.848;4.336;2023-02-28T17:18:16;2.80;;;1.60;;
20122;SDS011;10222;50.848;4.336;2023-02-28T17:20:47;3.13;;;1.30;;
20122;SDS011;10222;50.848;4.336;2023-02-28T17:23:17;2.53;;;1.70;;
20122;SDS011;10222;50.848;4.336;2023-02-28T17:25:43;3.17;;;1.70;;
20122;SDS011;10222;50.848;4.336;2023-02-28T17:28:21;4.47;;;1.90;;
20122;SDS011;10222;50.848;4.336;2023-02-28T17:33:20;1.77;;;1.40;;
20122;SDS011;10222;50.848;4.336;2023-02-28T17:35:46;1.77;;;1.60;;
20122;SDS011;10222;50.848;4.336;2023-02-28T17:38:16;2.03;;;1.43;;
20122;SDS011;10222;50.848;4.336;2023-02-28T17:43:15;4.70;;;1.67;;
20122;SDS011;10222;50.848;4.336;2023-02-28T17:48:13;2.43;;;1.73;;
20122;SDS011;10222;50.848;4.336;2023-02-28T17:53:11;3.00;;;1.73;;
20122;SDS011;10222;50.848;4.336;2023-02-28T17:55:43;2.87;;;1.70;;
20122;SDS011;10222;50.848;4.336;2023-02-28T17:58:15;2.00;;;1.60;;
20122;SDS011;10222;50.848;4.336;2023-02-28T18:00:43;3.67;;;1.53;;
20122;SDS011;10222;50.848;4.336;2023-02-28T18:05:41;3.50;;;2.23;;
20122;SDS011;10222;50.848;4.336;2023-02-28T18:10:39;3.63;;;1.60;;
20122;SDS011;10222;50.848;4.336;2023-02-28T18:13:06;4.73;;;2.63;;
20122;SDS011;10222;50.848;4.336;2023-02-28T18:15:34;2.23;;;1.80;;
20122;SDS011;10222;50.848;4.336;2023-02-28T18:18:00;3.23;;;2.00;;
20122;SDS011;10222;50.848;4.336;2023-02-28T18:20:30;2.23;;;1.80;;
20122;SDS011;10222;50.848;4.336;2023-02-28T18:25:27;3.73;;;2.10;;
20122;SDS011;10222;50.848;4.336;2023-02-28T18:27:55;3.23;;;1.73;;
20122;SDS011;10222;50.848;4.336;2023-02-28T18:32:59;3.70;;;1.50;;
20122;SDS011;10222;50.848;4.336;2023-02-28T18:35:26;2.70;;;1.67;;
20122;SDS011;10222;50.848;4.336;2023-02-28T18:38:10;3.63;;;1.87;;
20122;SDS011;10222;50.848;4.336;2023-02-28T18:40:38;2.00;;;1.57;;
20122;SDS011;10222;50.848;4.336;2023-02-28T18:43:08;9.67;;;2.33;;
20122;SDS011;10222;50.848;4.336;2023-02-28T18:45:40;2.37;;;1.70;;
20122;SDS011;10222;50.848;4.336;2023-02-28T18:50:58;5.90;;;1.93;;
20122;SDS011;10222;50.848;4.336;2023-02-28T18:53:30;3.83;;;2.27;;
20122;SDS011;10222;50.848;4.336;2023-02-28T18:56:00;3.77;;;2.20;;
20122;SDS011;10222;50.848;4.336;2023-02-28T18:58:27;4.13;;;2.70;;
20122;SDS011;10222;50.848;4.336;2023-02-28T19:00:54;3.80;;;2.20;;
20122;SDS011;10222;50.848;4.336;2023-02-28T19:05:56;3.37;;;2.20;;
20122;SDS011;10222;50.848;4.336;2023-02-28T19:08:24;3.60;;;2.33;;
20122;SDS011;10222;50.848;4.336;2023-02-28T19:10:51;4.10;;;2.50;;
20122;SDS011;10222;50.848;4.336;2023-02-28T19:13:19;5.63;;;2.83;;
20122;SDS011;10222;50.848;4.336;2023-02-28T19:18:14;3.40;;;2.13;;
20122;SDS011;10222;50.848;4.336;2023-02-28T19:20:42;6.40;;;2.80;;
20122;SDS011;10222;50.848;4.336;2023-02-28T19:23:13;4.13;;;2.43;;
20122;SDS011;10222;50.848;4.336;2023-02-28T19:28:08;4.23;;;2.40;;
20122;SDS011;10222;50.848;4.336;2023-02-28T19:30:37;5.13;;;2.57;;
20122;SDS011;10222;50.848;4.336;2023-02-28T19:35:33;3.57;;;2.70;;
20122;SDS011;10222;50.848;4.336;2023-02-28T19:38:02;3.33;;;2.50;;
20122;SDS011;10222;50.848;4.336;2023-02-28T19:40:34;3.80;;;3.07;;
20122;SDS011;10222;50.848;4.336;2023-02-28T19:47:58;6.13;;;3.30;;
20122;SDS011;10222;50.848;4.336;2023-02-28T19:50:26;4.70;;;3.03;;
20122;SDS011;10222;50.848;4.336;2023-02-28T19:52:55;6.33;;;3.30;;
20122;SDS011;10222;50.848;4.336;2023-02-28T19:57:50;5.67;;;3.20;;
20122;SDS011;10222;50.848;4.336;2023-02-28T20:00:18;6.33;;;3.10;;
20122;SDS011;10222;50.848;4.336;2023-02-28T20:02:47;6.17;;;3.17;;
20122;SDS011;10222;50.848;4.336;2023-02-28T20:05:15;3.63;;;2.70;;
20122;SDS011;10222;50.848;4.336;2023-02-28T20:07:41;6.97;;;3.50;;
20122;SDS011;10222;50.848;4.336;2023-02-28T20:15:06;6.77;;;3.97;;
20122;SDS011;10222;50.848;4.336;2023-02-28T20:22:36;9.07;;;3.93;;
20122;SDS011;10222;50.848;4.336;2023-02-28T20:25:03;5.23;;;3.10;;
20122;SDS011;10222;50.848;4.336;2023-02-28T20:27:33;4.53;;;3.03;;
20122;SDS011;10222;50.848;4.336;2023-02-28T20:30:00;5.70;;;3.40;;
20122;SDS011;10222;50.848;4.336;2023-02-28T20:32:33;5.53;;;3.70;;
20122;SDS011;10222;50.848;4.336;2023-02-28T20:35:01;8.73;;;3.33;;
20122;SDS011;10222;50.848;4.336;2023-02-28T20:39:59;7.10;;;3.73;;
20122;SDS011;10222;50.848;4.336;2023-02-28T20:45:00;6.50;;;3.40;;
20122;SDS011;10222;50.848;4.336;2023-02-28T20:49:55;7.43;;;3.03;;
20122;SDS011;10222;50.848;4.336;2023-02-28T20:54:53;4.83;;;3.30;;
20122;SDS011;10222;50.848;4.336;2023-02-28T20:59:49;5.43;;;2.60;;
20122;SDS011;10222;50.848;4.336;2023-02-28T21:02:15;7.83;;;3.93;;
20122;SDS011;10222;50.848;4.336;2023-02-28T21:04:45;5.47;;;3.70;;
20122;SDS011;10222;50.848;4.336;2023-02-28T21:07:14;9.13;;;3.77;;
20122;SDS011;10222;50.848;4.336;2023-02-28T21:09:40;5.90;;;4.03;;
20122;SDS011;10222;50.848;4.336;2023-02-28T21:12:06;5.83;;;4.03;;
20122;SDS011;10222;50.848;4.336;2023-02-28T21:17:04;6.93;;;4.17;;